Eems Servant — PBTI — position and weather

sailwx.info

Track history (hours):
 
Tides and Currents Weather Stations Pressure Air Temp Water Temp Dewpoint Dewpoint Depression Visibility Wind Speed Wind Dir Waves Ship Positions

Eems Servant

Last reported at 2017-Apr-28 11:22 UTC. Time now 2017-Apr-28 12:23 UTC.
Position N 53°28' E 006°50'.

Length 87 m; draft 2.7 m.

Type: Cargo ship. MMSI: 246236000.

Date/timePositionNaut miles runAvg speedWind from/ knotsBaromVisibWave heightAir tempDewpointWater temp
2017-Apr-28 11:22N 53°28' E 006°50'1 0.6
2017-Apr-28 09:28N 53°27' E 006°51'0 0.0
2017-Apr-28 08:25N 53°27' E 006°51'2 0.0
2017-Apr-26 11:53N 53°29' E 006°50'2 0.8
2017-Apr-26 09:17N 53°27' E 006°51'0 0.0
2017-Apr-26 08:34N 53°27' E 006°51'0 0.1
2017-Apr-26 08:30N 53°27' E 006°51'0 0.0
2017-Apr-26 07:58N 53°27' E 006°51'0 0.0
2017-Apr-26 07:29N 53°27' E 006°51'0 0.0
2017-Apr-26 07:00N 53°27' E 006°51'0 0.0
2017-Apr-26 06:30N 53°27' E 006°51'0 0.0
2017-Apr-26 06:00N 53°27' E 006°51'3 0.1
2017-Apr-24 09:50N 53°30' E 006°49'3 8.1
2017-Apr-24 09:30N 53°27' E 006°50'1 0.8
2017-Apr-24 08:29N 53°27' E 006°51'0 0.0
2017-Apr-24 07:50N 53°27' E 006°51'0 0.0
2017-Apr-24 07:29N 53°27' E 006°51'0 0.0
2017-Apr-24 06:50N 53°27' E 006°51'0 0.0
2017-Apr-24 06:26N 53°27' E 006°51'0 0.0
2017-Apr-24 05:59N 53°27' E 006°51'0 0.0
2017-Apr-24 05:29N 53°27' E 006°51'0 0.0
2017-Apr-24 04:50N 53°27' E 006°51'0 0.0
2017-Apr-24 04:26N 53°27' E 006°51'0 0.0
2017-Apr-24 03:53N 53°27' E 006°51'0 0.0
2017-Apr-24 03:29N 53°27' E 006°51'0 0.0
2017-Apr-24 02:13N 53°27' E 006°51'3 0.1
2017-Apr-22 08:26N 53°29' E 006°49'3 6.1
2017-Apr-22 08:00N 53°27' E 006°51'0 0.0
2017-Apr-22 04:25N 53°27' E 006°51'0 0.0
2017-Apr-22 02:37N 53°27' E 006°51'0 0.0
2017-Apr-22 02:27N 53°27' E 006°51'0 0.1
2017-Apr-22 01:54N 53°27' E 006°50'7 0.2
2017-Apr-20 10:19N 53°32' E 006°44'3 8.8
2017-Apr-20 10:00N 53°31' E 006°47'4 8.1
2017-Apr-20 09:30N 53°27' E 006°50'0 0.7
2017-Apr-20 09:01N 53°27' E 006°51'0 0.0
2017-Apr-20 08:31N 53°27' E 006°51'0 0.0
2017-Apr-20 08:01N 53°27' E 006°51'0 0.0
2017-Apr-19 17:21N 53°27' E 006°51'0 0.8
2017-Apr-19 16:54N 53°27' E 006°51'0 0.0
2017-Apr-19 16:30N 53°27' E 006°51'0 0.0
2017-Apr-19 12:42N 53°27' E 006°51'0 0.0
2017-Apr-19 12:30N 53°27' E 006°51'0 0.0
2017-Apr-19 11:12N 53°27' E 006°51'0 0.0
2017-Apr-19 10:48N 53°27' E 006°51'0 0.0
2017-Apr-19 10:30N 53°27' E 006°51'0 0.0
2017-Apr-18 17:54N 53°26' E 006°51'0 0.4
2017-Apr-18 17:24N 53°27' E 006°51'0 0.0
2017-Apr-18 17:00N 53°27' E 006°51'0 0.0
2017-Apr-18 16:18N 53°27' E 006°51'0 0.0
2017-Apr-18 16:00N 53°27' E 006°51'0 0.0
2017-Apr-18 12:48N 53°27' E 006°51'0 0.0
2017-Apr-18 12:27N 53°27' E 006°51'0 0.0
2017-Apr-18 12:00N 53°27' E 006°51'  
Track history (hours):
 
Tides and Currents Weather Stations Pressure Air Temp Water Temp Dewpoint Dewpoint Depression Visibility Wind Speed Wind Dir Waves Ship Positions

Eems Servant

Last reported at 2017-Apr-28 11:22 UTC. Time now 2017-Apr-28 12:23 UTC.
Position N 53°28' E 006°50'.

Length 87 m; draft 2.7 m.

Type: Cargo ship. MMSI: 246236000.

Date/timePositionNaut miles runAvg speedWind from/ knotsBaromVisibWave heightAir tempDewpointWater temp
2017-Apr-28 11:22N 53°28' E 006°50'1 0.6
2017-Apr-28 09:28N 53°27' E 006°51'0 0.0
2017-Apr-28 08:25N 53°27' E 006°51'2 0.0
2017-Apr-26 11:53N 53°29' E 006°50'2 0.8
2017-Apr-26 09:17N 53°27' E 006°51'0 0.0
2017-Apr-26 08:34N 53°27' E 006°51'0 0.1
2017-Apr-26 08:30N 53°27' E 006°51'0 0.0
2017-Apr-26 07:58N 53°27' E 006°51'0 0.0
2017-Apr-26 07:29N 53°27' E 006°51'0 0.0
2017-Apr-26 07:00N 53°27' E 006°51'0 0.0
2017-Apr-26 06:30N 53°27' E 006°51'0 0.0
2017-Apr-26 06:00N 53°27' E 006°51'3 0.1
2017-Apr-24 09:50N 53°30' E 006°49'3 8.1
2017-Apr-24 09:30N 53°27' E 006°50'1 0.8
2017-Apr-24 08:29N 53°27' E 006°51'0 0.0
2017-Apr-24 07:50N 53°27' E 006°51'0 0.0
2017-Apr-24 07:29N 53°27' E 006°51'0 0.0
2017-Apr-24 06:50N 53°27' E 006°51'0 0.0
2017-Apr-24 06:26N 53°27' E 006°51'0 0.0
2017-Apr-24 05:59N 53°27' E 006°51'0 0.0
2017-Apr-24 05:29N 53°27' E 006°51'0 0.0
2017-Apr-24 04:50N 53°27' E 006°51'0 0.0
2017-Apr-24 04:26N 53°27' E 006°51'0 0.0
2017-Apr-24 03:53N 53°27' E 006°51'0 0.0
2017-Apr-24 03:29N 53°27' E 006°51'0 0.0
2017-Apr-24 02:13N 53°27' E 006°51'3 0.1
2017-Apr-22 08:26N 53°29' E 006°49'3 6.1
2017-Apr-22 08:00N 53°27' E 006°51'0 0.0
2017-Apr-22 04:25N 53°27' E 006°51'0 0.0
2017-Apr-22 02:37N 53°27' E 006°51'0 0.0
2017-Apr-22 02:27N 53°27' E 006°51'0 0.1
2017-Apr-22 01:54N 53°27' E 006°50'7 0.2
2017-Apr-20 10:19N 53°32' E 006°44'3 8.8
2017-Apr-20 10:00N 53°31' E 006°47'4 8.1
2017-Apr-20 09:30N 53°27' E 006°50'0 0.7
2017-Apr-20 09:01N 53°27' E 006°51'0 0.0
2017-Apr-20 08:31N 53°27' E 006°51'0 0.0
2017-Apr-20 08:01N 53°27' E 006°51'0 0.0
2017-Apr-19 17:21N 53°27' E 006°51'0 0.8
2017-Apr-19 16:54N 53°27' E 006°51'0 0.0
2017-Apr-19 16:30N 53°27' E 006°51'0 0.0
2017-Apr-19 12:42N 53°27' E 006°51'0 0.0
2017-Apr-19 12:30N 53°27' E 006°51'0 0.0
2017-Apr-19 11:12N 53°27' E 006°51'0 0.0
2017-Apr-19 10:48N 53°27' E 006°51'0 0.0
2017-Apr-19 10:30N 53°27' E 006°51'0 0.0
2017-Apr-18 17:54N 53°26' E 006°51'0 0.4
2017-Apr-18 17:24N 53°27' E 006°51'0 0.0
2017-Apr-18 17:00N 53°27' E 006°51'0 0.0
2017-Apr-18 16:18N 53°27' E 006°51'0 0.0
2017-Apr-18 16:00N 53°27' E 006°51'0 0.0
2017-Apr-18 12:48N 53°27' E 006°51'0 0.0
2017-Apr-18 12:27N 53°27' E 006°51'0 0.0
2017-Apr-18 12:00N 53°27' E 006°51'  

Dump ship's entire track history